Ufo 3 — IUNV — position and weather

sailwx.info

Track history (hours):
 
Tides and Currents Weather Stations Pressure Air Temp Water Temp Dewpoint Dewpoint Depression Visibility Wind Speed Wind Dir Waves Ship Positions

Ufo 3

Last reported at 2016-Jun-28 14:28 UTC. Time now 2016-Jun-28 15:19 UTC.
Position N 44°06' E 009°44'.

Length 28 m.

Type: Passenger vessel. MMSI: 247031600.

Date/timePositionNaut miles runAvg speedWind from/ knotsBaromVisibWave heightAir tempDewpointWater temp
2016-Jun-28 14:28N 44°06' E 009°44'5 5.7
2016-Jun-28 13:34N 44°03' E 009°50'0 0.0
2016-Jun-28 12:33N 44°03' E 009°50'2 2.5
2016-Jun-28 11:34N 44°04' E 009°47'2 0.8
2016-Jun-28 08:33N 44°03' E 009°50'3 3.1
2016-Jun-28 07:33N 44°06' E 009°50'1 1.0
2016-Jun-28 06:33N 44°05' E 009°50'3 0.2
2016-Jun-27 15:34N 44°04' E 009°54'2 0.8
2016-Jun-27 12:21N 44°03' E 009°51'7 7.4
2016-Jun-27 11:22N 44°07' E 009°42'7 8.8
2016-Jun-27 10:34N 44°03' E 009°50'0 0.3
2016-Jun-27 09:34N 44°03' E 009°51'0 0.3
2016-Jun-27 08:34N 44°03' E 009°50'0 0.0
2016-Jun-27 07:34N 44°03' E 009°50'3 0.2
2016-Jun-26 16:33N 44°04' E 009°53'3 2.7
2016-Jun-26 15:34N 44°03' E 009°50'2 2.1
2016-Jun-26 14:33N 44°04' E 009°53'2 2.5
2016-Jun-26 13:33N 44°02' E 009°51'2 1.6
2016-Jun-26 12:33N 44°04' E 009°52'2 2.3
2016-Jun-26 11:33N 44°04' E 009°55'3 3.4
2016-Jun-26 10:33N 44°03' E 009°50'5 2.5
2016-Jun-26 08:29N 44°06' E 009°44'5 5.7
2016-Jun-26 07:34N 44°04' E 009°51'1 0.8
2016-Jun-26 06:33N 44°04' E 009°51'1 0.1
2016-Jun-25 23:21N 44°03' E 009°50'3 3.9
2016-Jun-25 22:33N 44°06' E 009°50'1 1.1
2016-Jun-25 21:33N 44°05' E 009°49'1 1.2
2016-Jun-25 20:34N 44°06' E 009°50'0 0.0
2016-Jun-25 19:34N 44°06' E 009°50'1 0.8
2016-Jun-25 18:33N 44°06' E 009°50'1 0.7
2016-Jun-25 17:34N 44°06' E 009°50'0 0.1
2016-Jun-25 16:33N 44°06' E 009°50'1 0.6
2016-Jun-25 15:33N 44°06' E 009°50'3 2.7
2016-Jun-25 14:33N 44°03' E 009°50'5 1.3
2016-Jun-25 10:26N 44°06' E 009°44'5 6.0
2016-Jun-25 09:33N 44°03' E 009°50'5 2.3
2016-Jun-25 07:15N 44°06' E 009°44'6 0.4
2016-Jun-24 16:33N 44°03' E 009°51'6 1.8
2016-Jun-24 13:23N 44°06' E 009°44'5 6.3
2016-Jun-24 12:33N 44°03' E 009°50'0 0.0
2016-Jun-24 11:33N 44°03' E 009°50'1 1.0
2016-Jun-24 10:33N 44°03' E 009°49'4 2.1
2016-Jun-24 08:31N 44°06' E 009°44'5 1.1
2016-Jun-24 03:33N 44°03' E 009°50'0 0.0
2016-Jun-23 17:13N 44°03' E 009°50'2 3.4
2016-Jun-23 16:33N 44°05' E 009°51'9 4.0
2016-Jun-23 14:23N 44°09' E 009°39'0 0.0
2016-Jun-23 13:33N 44°09' E 009°39'0 0.0
2016-Jun-23 12:29N 44°09' E 009°39'4 4.2
2016-Jun-23 11:33N 44°06' E 009°44'6 6.0
2016-Jun-23 10:33N 44°03' E 009°51'1 0.5
2016-Jun-23 09:33N 44°03' E 009°50'0 0.0
2016-Jun-23 08:33N 44°03' E 009°50'3 3.1
2016-Jun-23 07:34N 44°06' E 009°49'4 0.1
2016-Jun-21 15:34N 44°04' E 009°54'11 7.7
2016-Jun-21 14:04N 44°08' E 009°39'4 2.4
2016-Jun-21 12:20N 44°06' E 009°44'5 6.7
2016-Jun-21 11:33N 44°03' E 009°50'0 0.0
2016-Jun-21 10:33N 44°03' E 009°50'0 0.3
2016-Jun-21 09:34N 44°03' E 009°50'9 8.4
2016-Jun-21 08:26N 44°08' E 009°39'2 2.4
2016-Jun-21 07:26N 44°09' E 009°36'1213.2
2016-Jun-21 06:33N 44°03' E 009°50'1 0.0
2016-Jun-20 16:34N 44°03' E 009°49'9 6.6
2016-Jun-20 15:13N 44°08' E 009°39'4 5.8
2016-Jun-20 14:30N 44°06' E 009°44'5 5.6
2016-Jun-20 13:33N 44°03' E 009°50'0 0.0
2016-Jun-20 12:33N 44°03' E 009°50'0 0.0
2016-Jun-20 11:33N 44°03' E 009°50'0 0.0
2016-Jun-19 17:03N 44°03' E 009°50'3 6.4
2016-Jun-19 16:33N 44°04' E 009°54'3 0.3
2016-Jun-19 06:33N 44°03' E 009°50'0 0.0
2016-Jun-19 05:33N 44°03' E 009°50'0 0.0
2016-Jun-18 15:10N 44°03' E 009°51'0 0.7
2016-Jun-18 14:33N 44°03' E 009°50'  
Track history (hours):
 
Tides and Currents Weather Stations Pressure Air Temp Water Temp Dewpoint Dewpoint Depression Visibility Wind Speed Wind Dir Waves Ship Positions

Ufo 3

Last reported at 2016-Jun-28 14:28 UTC. Time now 2016-Jun-28 15:19 UTC.
Position N 44°06' E 009°44'.

Length 28 m.

Type: Passenger vessel. MMSI: 247031600.

Date/timePositionNaut miles runAvg speedWind from/ knotsBaromVisibWave heightAir tempDewpointWater temp
2016-Jun-28 14:28N 44°06' E 009°44'5 5.7
2016-Jun-28 13:34N 44°03' E 009°50'0 0.0
2016-Jun-28 12:33N 44°03' E 009°50'2 2.5
2016-Jun-28 11:34N 44°04' E 009°47'2 0.8
2016-Jun-28 08:33N 44°03' E 009°50'3 3.1
2016-Jun-28 07:33N 44°06' E 009°50'1 1.0
2016-Jun-28 06:33N 44°05' E 009°50'3 0.2
2016-Jun-27 15:34N 44°04' E 009°54'2 0.8
2016-Jun-27 12:21N 44°03' E 009°51'7 7.4
2016-Jun-27 11:22N 44°07' E 009°42'7 8.8
2016-Jun-27 10:34N 44°03' E 009°50'0 0.3
2016-Jun-27 09:34N 44°03' E 009°51'0 0.3
2016-Jun-27 08:34N 44°03' E 009°50'0 0.0
2016-Jun-27 07:34N 44°03' E 009°50'3 0.2
2016-Jun-26 16:33N 44°04' E 009°53'3 2.7
2016-Jun-26 15:34N 44°03' E 009°50'2 2.1
2016-Jun-26 14:33N 44°04' E 009°53'2 2.5
2016-Jun-26 13:33N 44°02' E 009°51'2 1.6
2016-Jun-26 12:33N 44°04' E 009°52'2 2.3
2016-Jun-26 11:33N 44°04' E 009°55'3 3.4
2016-Jun-26 10:33N 44°03' E 009°50'5 2.5
2016-Jun-26 08:29N 44°06' E 009°44'5 5.7
2016-Jun-26 07:34N 44°04' E 009°51'1 0.8
2016-Jun-26 06:33N 44°04' E 009°51'1 0.1
2016-Jun-25 23:21N 44°03' E 009°50'3 3.9
2016-Jun-25 22:33N 44°06' E 009°50'1 1.1
2016-Jun-25 21:33N 44°05' E 009°49'1 1.2
2016-Jun-25 20:34N 44°06' E 009°50'0 0.0
2016-Jun-25 19:34N 44°06' E 009°50'1 0.8
2016-Jun-25 18:33N 44°06' E 009°50'1 0.7
2016-Jun-25 17:34N 44°06' E 009°50'0 0.1
2016-Jun-25 16:33N 44°06' E 009°50'1 0.6
2016-Jun-25 15:33N 44°06' E 009°50'3 2.7
2016-Jun-25 14:33N 44°03' E 009°50'5 1.3
2016-Jun-25 10:26N 44°06' E 009°44'5 6.0
2016-Jun-25 09:33N 44°03' E 009°50'5 2.3
2016-Jun-25 07:15N 44°06' E 009°44'6 0.4
2016-Jun-24 16:33N 44°03' E 009°51'6 1.8
2016-Jun-24 13:23N 44°06' E 009°44'5 6.3
2016-Jun-24 12:33N 44°03' E 009°50'0 0.0
2016-Jun-24 11:33N 44°03' E 009°50'1 1.0
2016-Jun-24 10:33N 44°03' E 009°49'4 2.1
2016-Jun-24 08:31N 44°06' E 009°44'5 1.1
2016-Jun-24 03:33N 44°03' E 009°50'0 0.0
2016-Jun-23 17:13N 44°03' E 009°50'2 3.4
2016-Jun-23 16:33N 44°05' E 009°51'9 4.0
2016-Jun-23 14:23N 44°09' E 009°39'0 0.0
2016-Jun-23 13:33N 44°09' E 009°39'0 0.0
2016-Jun-23 12:29N 44°09' E 009°39'4 4.2
2016-Jun-23 11:33N 44°06' E 009°44'6 6.0
2016-Jun-23 10:33N 44°03' E 009°51'1 0.5
2016-Jun-23 09:33N 44°03' E 009°50'0 0.0
2016-Jun-23 08:33N 44°03' E 009°50'3 3.1
2016-Jun-23 07:34N 44°06' E 009°49'4 0.1
2016-Jun-21 15:34N 44°04' E 009°54'11 7.7
2016-Jun-21 14:04N 44°08' E 009°39'4 2.4
2016-Jun-21 12:20N 44°06' E 009°44'5 6.7
2016-Jun-21 11:33N 44°03' E 009°50'0 0.0
2016-Jun-21 10:33N 44°03' E 009°50'0 0.3
2016-Jun-21 09:34N 44°03' E 009°50'9 8.4
2016-Jun-21 08:26N 44°08' E 009°39'2 2.4
2016-Jun-21 07:26N 44°09' E 009°36'1213.2
2016-Jun-21 06:33N 44°03' E 009°50'1 0.0
2016-Jun-20 16:34N 44°03' E 009°49'9 6.6
2016-Jun-20 15:13N 44°08' E 009°39'4 5.8
2016-Jun-20 14:30N 44°06' E 009°44'5 5.6
2016-Jun-20 13:33N 44°03' E 009°50'0 0.0
2016-Jun-20 12:33N 44°03' E 009°50'0 0.0
2016-Jun-20 11:33N 44°03' E 009°50'0 0.0
2016-Jun-19 17:03N 44°03' E 009°50'3 6.4
2016-Jun-19 16:33N 44°04' E 009°54'3 0.3
2016-Jun-19 06:33N 44°03' E 009°50'0 0.0
2016-Jun-19 05:33N 44°03' E 009°50'0 0.0
2016-Jun-18 15:10N 44°03' E 009°51'0 0.7
2016-Jun-18 14:33N 44°03' E 009°50'  

Dump ship's entire track history